createdAt,value
2023-03-13T00:01:33.089Z,97552.50
2023-03-13T00:04:00.835Z,97549.63
2023-03-13T00:06:34.230Z,97557.34
2023-03-13T00:09:03.914Z,97563.16
2023-03-13T00:11:31.977Z,97574.44
2023-03-13T00:14:03.479Z,97556.69
2023-03-13T00:16:31.814Z,97546.69
2023-03-13T00:18:59.973Z,97551.78
2023-03-13T00:21:29.630Z,97545.94
2023-03-13T00:24:00.351Z,97542.81
2023-03-13T00:26:29.532Z,97537.72
2023-03-13T00:28:57.277Z,97541.59
2023-03-13T00:31:28.359Z,97540.22
2023-03-13T00:34:01.719Z,97524.38
2023-03-13T00:36:33.313Z,97518.78
2023-03-13T00:39:01.239Z,97519.66
2023-03-13T00:41:33.530Z,97519.25
2023-03-13T00:44:19.628Z,97514.06
2023-03-13T00:46:46.816Z,97509.56
2023-03-13T00:49:14.349Z,97528.28
2023-03-13T00:51:41.641Z,97508.63
2023-03-13T00:54:10.062Z,97517.13
2023-03-13T00:56:37.420Z,97519.00
2023-03-13T00:59:05.166Z,97511.47
2023-03-13T01:01:37.119Z,97517.97
2023-03-13T01:04:12.095Z,97499.66
2023-03-13T01:06:45.159Z,97488.16
2023-03-13T01:09:15.795Z,97487.88
2023-03-13T01:11:45.023Z,97500.00
2023-03-13T01:14:18.063Z,97512.41
2023-03-13T01:16:45.374Z,97510.38
2023-03-13T01:19:16.395Z,97506.97
2023-03-13T01:21:45.258Z,97513.09
2023-03-13T01:24:12.974Z,97511.03
2023-03-13T01:26:40.335Z,97522.59
2023-03-13T01:29:07.992Z,97507.34
2023-03-13T01:31:36.686Z,97524.41
2023-03-13T01:34:06.505Z,97526.00
2023-03-13T01:36:36.848Z,97531.00
2023-03-13T01:39:05.984Z,97520.38
2023-03-13T01:41:33.413Z,97537.31
2023-03-13T01:44:01.519Z,97522.13
2023-03-13T01:46:32.065Z,97525.09
2023-03-13T01:49:08.010Z,97530.00
2023-03-13T01:51:48.871Z,97531.47
2023-03-13T01:54:39.510Z,97523.41
2023-03-13T01:57:29.526Z,97514.53
2023-03-13T02:00:08.062Z,97505.00
2023-03-13T02:02:38.268Z,97518.59
2023-03-13T02:05:08.384Z,97513.41
2023-03-13T02:07:50.920Z,97521.09
2023-03-13T02:10:22.239Z,97513.03
2023-03-13T02:12:51.564Z,97523.00
2023-03-13T02:15:23.009Z,97517.56
2023-03-13T02:17:50.926Z,97518.03
2023-03-13T02:20:22.435Z,97518.28
2023-03-13T02:23:28.012Z,97517.44
2023-03-13T02:25:56.831Z,97539.13
2023-03-13T02:28:35.122Z,97526.09
2023-03-13T02:31:03.069Z,97541.56
2023-03-13T02:33:37.195Z,97534.88
2023-03-13T02:36:07.116Z,97541.84
2023-03-13T02:38:53.894Z,97534.63
2023-03-13T02:41:24.193Z,97543.97
2023-03-13T02:43:51.464Z,97542.50
2023-03-13T02:46:21.591Z,97552.47
2023-03-13T02:48:55.904Z,97553.72
2023-03-13T02:51:45.016Z,97565.91
2023-03-13T02:54:24.910Z,97549.25
2023-03-13T02:57:00.854Z,97562.50
2023-03-13T02:59:28.622Z,97555.53
2023-03-13T03:01:56.282Z,97564.81
2023-03-13T03:04:26.324Z,97556.84
2023-03-13T03:06:54.543Z,97560.63
2023-03-13T03:09:23.257Z,97559.63
2023-03-13T03:11:51.030Z,97552.31
2023-03-13T03:14:18.837Z,97554.41
2023-03-13T03:16:46.619Z,97559.78
2023-03-13T03:19:14.129Z,97549.78
2023-03-13T03:21:41.704Z,97560.72
2023-03-13T03:24:09.320Z,97554.97
2023-03-13T03:26:37.289Z,97572.81
2023-03-13T03:29:04.737Z,97563.31
2023-03-13T03:31:32.355Z,97552.47
2023-03-13T03:33:59.777Z,97554.34
2023-03-13T03:36:27.635Z,97556.84
2023-03-13T03:38:55.368Z,97565.75
2023-03-13T03:41:22.973Z,97573.91
2023-03-13T03:43:50.533Z,97551.53
2023-03-13T03:46:18.122Z,97557.75
2023-03-13T03:48:45.555Z,97557.03
2023-03-13T03:51:14.008Z,97562.03
2023-03-13T03:53:41.375Z,97553.50
2023-03-13T03:56:09.075Z,97571.09
2023-03-13T03:58:36.392Z,97561.50
2023-03-13T04:01:04.878Z,97552.75
2023-03-13T04:03:32.776Z,97561.66
2023-03-13T04:06:00.388Z,97555.53
2023-03-13T04:08:27.700Z,97559.31
2023-03-13T04:10:55.439Z,97555.34
2023-03-13T04:13:22.708Z,97560.59
2023-03-13T04:15:50.284Z,97553.56
2023-03-13T04:18:17.730Z,97556.09
2023-03-13T04:20:45.646Z,97546.09
2023-03-13T04:23:13.037Z,97551.75
2023-03-13T04:25:40.634Z,97542.34
2023-03-13T04:28:08.961Z,97541.78
2023-03-13T04:30:36.526Z,97545.97
2023-03-13T04:33:04.046Z,97541.59
2023-03-13T04:35:32.350Z,97544.63
2023-03-13T04:38:01.267Z,97550.22
2023-03-13T04:40:29.507Z,97538.84
2023-03-13T04:42:56.844Z,97540.69
2023-03-13T04:45:24.375Z,97554.03
2023-03-13T04:47:51.640Z,97536.66
2023-03-13T04:50:19.438Z,97534.34
2023-03-13T04:52:49.169Z,97533.25
2023-03-13T04:55:17.873Z,97541.41
2023-03-13T04:57:45.185Z,97528.78
2023-03-13T05:00:13.504Z,97540.72
2023-03-13T05:02:40.782Z,97531.47
2023-03-13T05:05:08.742Z,97538.94
2023-03-13T05:07:36.047Z,97532.06
2023-03-13T05:10:03.767Z,97529.88
2023-03-13T05:12:31.165Z,97520.25
2023-03-13T05:14:58.765Z,97530.06
2023-03-13T05:17:25.975Z,97529.41
2023-03-13T05:19:53.639Z,97525.50
2023-03-13T05:22:21.024Z,97526.69
2023-03-13T05:24:48.556Z,97518.84
2023-03-13T05:27:15.822Z,97522.88
2023-03-13T05:29:43.410Z,97526.44
2023-03-13T05:32:10.732Z,97520.09
2023-03-13T05:34:38.297Z,97521.13
2023-03-13T05:37:05.704Z,97513.47
2023-03-13T05:39:33.315Z,97524.50
2023-03-13T05:42:00.585Z,97525.44
2023-03-13T05:44:28.177Z,97521.47
2023-03-13T05:46:55.606Z,97527.00
2023-03-13T05:49:23.229Z,97521.81
2023-03-13T05:51:50.630Z,97531.22
2023-03-13T05:54:18.211Z,97526.84
2023-03-13T05:56:48.827Z,97520.53
2023-03-13T05:59:16.593Z,97513.38
2023-03-13T06:01:43.880Z,97500.47
2023-03-13T06:04:11.768Z,97512.75
2023-03-13T06:06:39.143Z,97526.59
2023-03-13T06:09:06.680Z,97500.41
2023-03-13T06:11:33.960Z,97501.56
2023-03-13T06:14:01.513Z,97495.28
2023-03-13T06:16:28.861Z,97489.88
2023-03-13T06:18:56.426Z,97494.03
2023-03-13T06:21:23.695Z,97496.75
2023-03-13T06:23:51.190Z,97505.56
2023-03-13T06:26:18.494Z,97504.69
2023-03-13T06:28:46.781Z,97491.13
2023-03-13T06:31:14.251Z,97503.75
2023-03-13T06:33:41.937Z,97499.84
2023-03-13T06:36:09.818Z,97496.94
2023-03-13T06:38:37.347Z,97513.13
2023-03-13T06:41:04.980Z,97497.31
2023-03-13T06:43:32.561Z,97500.69
2023-03-13T06:46:05.462Z,97501.34
2023-03-13T06:48:33.568Z,97497.38
2023-03-13T06:51:00.849Z,97492.44
2023-03-13T06:53:28.447Z,97495.44
2023-03-13T06:55:55.827Z,97480.75
2023-03-13T06:58:32.162Z,97484.25
2023-03-13T07:01:12.016Z,97487.34
2023-03-13T07:03:43.841Z,97486.03
2023-03-13T07:06:12.593Z,97483.44
2023-03-13T07:08:40.667Z,97481.28
2023-03-13T07:11:11.946Z,97485.44
2023-03-13T07:13:39.995Z,97468.19
2023-03-13T07:16:11.574Z,97477.78
2023-03-13T07:18:44.852Z,97478.22
2023-03-13T07:21:13.460Z,97488.81
2023-03-13T07:23:41.721Z,97484.78
2023-03-13T07:26:15.138Z,97464.50
2023-03-13T07:28:43.855Z,97468.56
2023-03-13T07:31:21.282Z,97477.47
2023-03-13T07:33:48.962Z,97482.75
2023-03-13T07:36:16.724Z,97463.13
2023-03-13T07:38:48.408Z,97491.97
2023-03-13T07:41:16.209Z,97450.19
2023-03-13T07:43:43.860Z,97447.13
2023-03-13T07:46:21.768Z,97443.44
2023-03-13T07:48:49.801Z,97442.19
2023-03-13T07:51:36.805Z,97448.56
2023-03-13T07:54:08.328Z,97442.84
2023-03-13T07:56:35.556Z,97444.31
2023-03-13T07:59:03.115Z,97464.75
2023-03-13T08:01:31.256Z,97444.50
2023-03-13T08:04:02.108Z,97430.31
2023-03-13T08:06:34.206Z,97427.34
2023-03-13T08:09:02.420Z,97429.69
2023-03-13T08:11:29.942Z,97443.97
2023-03-13T08:13:58.044Z,97444.50
2023-03-13T08:16:29.168Z,97442.88
2023-03-13T08:18:59.009Z,97436.72
2023-03-13T08:21:29.765Z,97430.22
2023-03-13T08:24:01.468Z,97430.06
2023-03-13T08:26:30.927Z,97439.66
2023-03-13T08:29:02.333Z,97423.56
2023-03-13T08:31:37.016Z,97405.47
2023-03-13T08:34:05.098Z,97437.69
2023-03-13T08:36:36.461Z,97415.28
2023-03-13T08:39:12.731Z,97432.94
2023-03-13T08:41:43.587Z,97432.16
2023-03-13T08:44:15.534Z,97451.66
2023-03-13T08:46:44.177Z,97429.50
2023-03-13T08:49:12.669Z,97436.75
2023-03-13T08:51:40.918Z,97415.94
2023-03-13T08:54:08.560Z,97408.94
2023-03-13T08:56:36.876Z,97414.69
2023-03-13T08:59:07.265Z,97414.09
2023-03-13T09:01:37.115Z,97406.06
2023-03-13T09:04:05.998Z,97434.22
2023-03-13T09:06:35.896Z,97431.06
2023-03-13T09:09:05.603Z,97401.91
2023-03-13T09:11:34.261Z,97439.47
2023-03-13T09:14:01.899Z,97409.25
2023-03-13T09:16:33.391Z,97402.88
2023-03-13T09:19:02.063Z,97436.72
2023-03-13T09:21:36.074Z,97392.84
2023-03-13T09:24:04.378Z,97401.25
2023-03-13T09:26:31.864Z,97391.50
2023-03-13T09:28:59.860Z,97399.72
2023-03-13T09:31:33.287Z,97385.16
2023-03-13T09:34:01.655Z,97374.59
2023-03-13T09:36:29.338Z,97393.56
2023-03-13T09:39:00.183Z,97388.06
2023-03-13T09:41:34.079Z,97374.06
2023-03-13T09:44:26.892Z,97384.72
2023-03-13T09:46:54.192Z,97402.22
2023-03-13T09:49:39.829Z,97385.38
2023-03-13T09:52:43.895Z,97388.06
2023-03-13T09:55:21.569Z,97400.66
2023-03-13T09:57:58.897Z,97377.78
2023-03-13T10:00:48.904Z,97381.38
2023-03-13T10:03:26.086Z,97365.22
2023-03-13T10:06:04.760Z,97386.63
2023-03-13T10:08:35.279Z,97357.38
2023-03-13T10:11:19.820Z,97352.09
2023-03-13T10:14:07.517Z,97334.97
2023-03-13T10:16:49.142Z,97382.88
2023-03-13T10:19:21.886Z,97348.72
2023-03-13T10:21:56.057Z,97369.59
2023-03-13T10:24:49.768Z,97338.66
2023-03-13T10:27:17.611Z,97334.25
2023-03-13T10:29:44.938Z,97413.28
2023-03-13T10:32:16.751Z,97322.06
2023-03-13T10:34:58.988Z,97327.25
2023-03-13T10:37:42.648Z,97326.22
2023-03-13T10:40:25.368Z,97286.19
2023-03-13T10:43:02.289Z,97315.66
2023-03-13T10:45:35.724Z,97299.19
2023-03-13T10:48:19.464Z,97282.06
2023-03-13T10:50:50.963Z,97319.75
2023-03-13T10:53:25.952Z,97297.78
2023-03-13T10:56:15.595Z,97303.94
2023-03-13T10:58:53.795Z,97293.31
2023-03-13T11:01:44.897Z,97309.31
2023-03-13T11:04:42.210Z,97266.81
2023-03-13T11:07:36.199Z,97269.66
2023-03-13T11:10:27.087Z,97286.28
2023-03-13T11:12:58.203Z,97246.72
2023-03-13T11:16:15.254Z,97278.06
2023-03-13T11:19:13.723Z,97241.44
2023-03-13T11:22:05.103Z,97266.84
2023-03-13T11:25:04.030Z,97224.50
2023-03-13T11:27:43.570Z,97224.72
2023-03-13T11:31:01.993Z,97228.50
2023-03-13T11:33:53.598Z,97209.78
2023-03-13T11:36:55.579Z,97206.06
2023-03-13T11:40:01.196Z,97206.69
2023-03-13T11:43:17.953Z,97217.31
2023-03-13T11:46:05.887Z,97192.91
2023-03-13T11:49:09.476Z,97200.06
2023-03-13T11:52:32.940Z,97218.50
2023-03-13T11:55:16.709Z,97194.31
2023-03-13T11:58:11.897Z,97182.94
2023-03-13T12:01:08.175Z,97165.66
2023-03-13T12:04:05.953Z,97177.13
2023-03-13T12:06:44.275Z,97159.97
2023-03-13T12:09:28.272Z,97149.47
2023-03-13T12:12:20.303Z,97153.78
2023-03-13T12:15:16.191Z,97163.16
2023-03-13T12:18:00.063Z,97161.69
2023-03-13T12:20:39.937Z,97157.88
2023-03-13T12:23:19.414Z,97148.00
2023-03-13T12:26:06.455Z,97161.94
2023-03-13T12:29:13.582Z,97146.50
2023-03-13T12:31:57.408Z,97147.56
2023-03-13T12:35:04.814Z,97159.97
2023-03-13T12:38:06.745Z,97177.31
2023-03-13T12:41:08.302Z,97171.13
2023-03-13T12:43:42.482Z,97180.88
2023-03-13T12:46:12.824Z,97169.59
2023-03-13T12:49:21.808Z,97151.59
2023-03-13T12:52:22.042Z,97164.16
2023-03-13T12:55:26.589Z,97156.78
2023-03-13T12:58:16.302Z,97158.75
2023-03-13T13:00:48.424Z,97152.44
2023-03-13T13:03:27.902Z,97152.13
2023-03-13T13:06:13.321Z,97155.72
2023-03-13T13:09:05.151Z,97152.19
2023-03-13T13:11:38.997Z,97164.34
2023-03-13T13:14:11.884Z,97162.72
2023-03-13T13:16:46.569Z,97150.38
2023-03-13T13:19:26.202Z,97160.09
2023-03-13T13:22:36.708Z,97142.97
2023-03-13T13:25:13.336Z,97143.13
2023-03-13T13:27:40.816Z,97125.03
2023-03-13T13:30:20.144Z,97117.81
2023-03-13T13:32:54.589Z,97118.41
2023-03-13T13:35:40.351Z,97113.63
2023-03-13T13:38:19.766Z,97125.66
2023-03-13T13:41:22.625Z,97128.03
2023-03-13T13:44:24.850Z,97107.22
2023-03-13T13:46:55.055Z,97108.94
2023-03-13T13:49:36.241Z,97094.84
2023-03-13T13:52:06.000Z,97105.03
2023-03-13T13:54:42.884Z,97097.75
2023-03-13T13:57:37.223Z,97096.09
2023-03-13T14:00:20.936Z,97087.22
2023-03-13T14:02:55.431Z,97087.50
2023-03-13T14:05:30.716Z,97095.78
2023-03-13T14:08:05.138Z,97094.69
2023-03-13T14:10:42.335Z,97098.13
2023-03-13T14:13:21.847Z,97094.69
2023-03-13T14:15:53.793Z,97099.13
2023-03-13T14:18:25.766Z,97089.44
2023-03-13T14:21:03.353Z,97109.47
2023-03-13T14:23:43.836Z,97112.25
2023-03-13T14:26:18.033Z,97090.59
2023-03-13T14:28:55.911Z,97082.63
2023-03-13T14:31:28.903Z,97071.00
2023-03-13T14:33:59.432Z,97069.19
2023-03-13T14:36:45.323Z,97081.19
2023-03-13T14:39:37.933Z,97055.66
2023-03-13T14:42:12.028Z,97065.06
2023-03-13T14:44:42.986Z,97072.22
2023-03-13T14:47:32.846Z,97077.22
2023-03-13T14:50:05.029Z,97066.22
2023-03-13T14:52:34.319Z,97063.50
2023-03-13T14:55:06.504Z,97068.59
2023-03-13T14:57:35.700Z,97067.94
2023-03-13T15:00:36.745Z,97079.38
2023-03-13T15:03:21.442Z,97063.25
2023-03-13T15:06:07.377Z,97063.25
2023-03-13T15:08:45.702Z,97057.94
2023-03-13T15:11:34.854Z,97065.63
2023-03-13T15:14:05.253Z,97065.81
2023-03-13T15:16:32.663Z,97071.56
2023-03-13T15:19:00.417Z,97056.56
2023-03-13T15:21:34.166Z,97049.13
2023-03-13T15:24:15.334Z,97043.22
2023-03-13T15:26:42.598Z,97035.63
2023-03-13T15:29:13.260Z,97037.69
2023-03-13T15:31:40.749Z,97041.00
2023-03-13T15:34:16.364Z,97064.81
2023-03-13T15:36:43.763Z,97053.94
2023-03-13T15:39:19.502Z,97072.41
2023-03-13T15:41:46.977Z,97051.31
2023-03-13T15:44:15.008Z,97048.56
2023-03-13T15:46:42.579Z,97042.25
2023-03-13T15:49:13.372Z,97046.34
2023-03-13T15:51:40.682Z,97045.09
2023-03-13T15:54:08.305Z,97047.56
2023-03-13T15:56:38.646Z,97044.00
2023-03-13T15:59:14.341Z,97045.66
2023-03-13T16:01:43.937Z,97033.69
2023-03-13T16:04:12.094Z,97036.16
2023-03-13T16:06:39.467Z,97048.41
2023-03-13T16:09:07.991Z,97043.59
2023-03-13T16:11:35.661Z,97049.50
2023-03-13T16:14:03.435Z,97046.34
2023-03-13T16:16:37.278Z,97050.03
2023-03-13T16:19:07.604Z,97041.50
2023-03-13T16:21:36.172Z,97045.66
2023-03-13T16:24:04.089Z,97037.69
2023-03-13T16:26:32.849Z,97034.09
2023-03-13T16:29:01.498Z,97036.00
2023-03-13T16:31:32.722Z,97016.50
2023-03-13T16:34:02.373Z,97023.91
2023-03-13T16:36:33.420Z,97016.88
2023-03-13T16:39:06.127Z,97003.81
2023-03-13T16:41:33.489Z,96996.25
2023-03-13T16:44:02.817Z,97016.50
2023-03-13T16:46:55.595Z,97002.44
2023-03-13T16:49:31.873Z,97025.00
2023-03-13T16:51:59.157Z,97016.19
2023-03-13T16:54:26.739Z,97020.03
2023-03-13T16:56:54.139Z,97024.41
2023-03-13T16:59:23.322Z,97004.25
2023-03-13T17:01:50.844Z,96993.50
2023-03-13T17:04:18.531Z,96989.25
2023-03-13T17:06:46.835Z,96997.47
2023-03-13T17:09:18.007Z,96996.94
2023-03-13T17:11:45.986Z,96991.72
2023-03-13T17:14:13.716Z,96994.63
2023-03-13T17:16:46.266Z,96999.41
2023-03-13T17:19:15.511Z,96990.50
2023-03-13T17:21:43.148Z,96980.97
2023-03-13T17:24:10.768Z,96990.59
2023-03-13T17:26:40.257Z,96980.97
2023-03-13T17:29:14.516Z,96990.91
2023-03-13T17:31:41.935Z,96984.31
2023-03-13T17:34:10.084Z,96982.91
2023-03-13T17:36:37.598Z,96979.06
2023-03-13T17:39:08.912Z,96970.53
2023-03-13T17:41:36.483Z,96976.31
2023-03-13T17:44:04.359Z,96969.84
2023-03-13T17:46:38.193Z,96959.81
2023-03-13T17:49:06.000Z,96952.38
2023-03-13T17:51:36.254Z,96957.34
2023-03-13T17:54:15.652Z,96944.00
2023-03-13T17:56:45.122Z,96941.09
2023-03-13T17:59:21.513Z,96940.41
2023-03-13T18:01:49.024Z,96934.34
2023-03-13T18:04:16.677Z,96941.66
2023-03-13T18:06:48.777Z,96937.41
2023-03-13T18:09:22.112Z,96927.09
2023-03-13T18:11:50.183Z,96916.06
2023-03-13T18:14:17.966Z,96905.06
2023-03-13T18:16:50.367Z,96914.69
2023-03-13T18:19:24.011Z,96899.00
2023-03-13T18:21:55.411Z,96895.00
2023-03-13T18:24:23.256Z,96889.78
2023-03-13T18:26:50.948Z,96887.97
2023-03-13T18:29:29.255Z,96885.81
2023-03-13T18:32:00.628Z,96880.59
2023-03-13T18:34:29.065Z,96885.81
2023-03-13T18:36:57.242Z,96887.47
2023-03-13T18:39:24.819Z,96901.91
2023-03-13T18:41:52.830Z,96899.84
2023-03-13T18:44:21.128Z,96895.47
2023-03-13T18:46:50.665Z,96893.66
2023-03-13T18:49:22.443Z,96891.16
2023-03-13T18:51:53.659Z,96891.00
2023-03-13T18:54:21.359Z,96881.78
2023-03-13T18:56:48.778Z,96890.44
2023-03-13T18:59:20.999Z,96882.59
2023-03-13T19:01:49.409Z,96880.81
2023-03-13T19:04:19.100Z,96860.13
2023-03-13T19:06:48.333Z,96873.22
2023-03-13T19:09:42.739Z,96860.00
2023-03-13T19:12:07.891Z,96861.22
2023-03-13T19:14:35.554Z,96859.41
2023-03-13T19:17:04.123Z,96866.56
2023-03-13T19:19:32.080Z,96866.72
2023-03-13T19:21:59.406Z,96862.88
2023-03-13T19:24:27.480Z,96874.72
2023-03-13T19:26:59.242Z,96871.66
2023-03-13T19:29:29.042Z,96864.53
2023-03-13T19:31:56.789Z,96870.81
2023-03-13T19:34:24.582Z,96862.25
2023-03-13T19:36:53.494Z,96854.31
2023-03-13T19:39:24.387Z,96858.41
2023-03-13T19:41:53.189Z,96860.63
2023-03-13T19:44:22.328Z,96875.75
2023-03-13T19:46:49.993Z,96857.00
2023-03-13T19:49:20.989Z,96860.44
2023-03-13T19:51:49.300Z,96851.72
2023-03-13T19:54:17.100Z,96848.06
2023-03-13T19:56:49.866Z,96844.63
2023-03-13T19:59:24.000Z,96850.97
2023-03-13T20:01:51.480Z,96836.34
2023-03-13T20:04:19.172Z,96844.22
2023-03-13T20:06:46.568Z,96839.66
2023-03-13T20:09:17.869Z,96829.44
2023-03-13T20:11:45.387Z,96831.59
2023-03-13T20:14:13.472Z,96823.47
2023-03-13T20:16:40.805Z,96823.63
2023-03-13T20:19:08.484Z,96815.75
2023-03-13T20:21:41.334Z,96816.81
2023-03-13T20:24:10.591Z,96837.41
2023-03-13T20:26:38.050Z,96837.41
2023-03-13T20:29:05.790Z,96804.72
2023-03-13T20:31:33.474Z,96804.94
2023-03-13T20:34:01.190Z,96815.78
2023-03-13T20:36:28.685Z,96793.97
2023-03-13T20:38:57.112Z,96799.41
2023-03-13T20:41:28.774Z,96794.91
2023-03-13T20:43:56.359Z,96795.22
2023-03-13T20:46:23.772Z,96780.34
2023-03-13T20:48:51.382Z,96781.69
2023-03-13T20:51:18.682Z,96767.81
2023-03-13T20:53:46.316Z,96761.34
2023-03-13T20:56:13.943Z,96763.94
2023-03-13T20:58:41.567Z,96765.84
2023-03-13T21:01:09.233Z,96765.53
2023-03-13T21:03:37.344Z,96763.13
2023-03-13T21:06:18.153Z,96766.25
2023-03-13T21:08:47.118Z,96787.38
2023-03-13T21:11:17.694Z,96758.78
2023-03-13T21:13:45.918Z,96746.84
2023-03-13T21:16:14.479Z,96741.88
2023-03-13T21:18:42.732Z,96750.13
2023-03-13T21:21:17.112Z,96735.97
2023-03-13T21:23:46.285Z,96748.91
2023-03-13T21:26:14.995Z,96748.56
2023-03-13T21:28:42.687Z,96743.09
2023-03-13T21:31:12.708Z,96729.34
2023-03-13T21:33:42.274Z,96727.63
2023-03-13T21:36:12.531Z,96719.31
2023-03-13T21:38:40.322Z,96729.84
2023-03-13T21:41:13.762Z,96740.25
2023-03-13T21:43:43.104Z,96727.22
2023-03-13T21:46:14.207Z,96720.03
2023-03-13T21:51:13.470Z,96721.59
2023-03-13T21:53:44.698Z,96717.41
2023-03-13T21:56:16.748Z,96711.91
2023-03-13T21:58:45.611Z,96706.88
2023-03-13T22:01:14.871Z,96708.47
2023-03-13T22:03:42.617Z,96711.28
2023-03-13T22:06:16.149Z,96709.50
2023-03-13T22:08:44.210Z,96700.47
2023-03-13T22:11:11.900Z,96703.59
2023-03-13T22:13:39.627Z,96716.16
2023-03-13T22:16:08.069Z,96693.34
2023-03-13T22:18:35.755Z,96677.28
2023-03-13T22:21:03.362Z,96669.00
2023-03-13T22:23:30.942Z,96656.19
2023-03-13T22:25:59.280Z,96663.69
2023-03-13T22:28:28.018Z,96658.53
2023-03-13T22:30:55.340Z,96678.66
2023-03-13T22:33:23.073Z,96643.50
2023-03-13T22:35:54.967Z,96655.59
2023-03-13T22:38:23.229Z,96659.44
2023-03-13T22:41:03.062Z,96636.91
2023-03-13T22:43:31.095Z,96622.97
2023-03-13T22:45:59.829Z,96611.66
2023-03-13T22:48:27.496Z,96626.16
2023-03-13T22:51:09.598Z,96617.41
2023-03-13T22:53:39.770Z,96601.13
2023-03-13T22:56:10.098Z,96606.06
2023-03-13T22:58:39.171Z,96609.78
2023-03-13T23:01:26.745Z,96604.78
2023-03-13T23:03:54.439Z,96609.56
2023-03-13T23:06:25.842Z,96612.59
2023-03-13T23:08:54.019Z,96607.53
2023-03-13T23:11:26.538Z,96619.53
2023-03-13T23:13:54.105Z,96592.97
2023-03-13T23:16:21.613Z,96610.81
2023-03-13T23:18:49.320Z,96605.47
2023-03-13T23:21:17.250Z,96604.19
2023-03-13T23:23:45.891Z,96601.63
2023-03-13T23:26:16.135Z,96593.72
2023-03-13T23:28:43.955Z,96594.22
2023-03-13T23:31:20.872Z,96608.00
2023-03-13T23:33:49.733Z,96597.00
2023-03-13T23:36:19.706Z,96597.81
2023-03-13T23:38:52.951Z,96573.19
2023-03-13T23:41:21.816Z,96573.94
2023-03-13T23:43:49.425Z,96577.53
2023-03-13T23:46:23.260Z,96586.44
2023-03-13T23:48:58.617Z,96588.28
2023-03-13T23:51:26.590Z,96584.03
2023-03-13T23:53:54.136Z,96587.84
2023-03-13T23:56:22.116Z,96579.59
2023-03-13T23:58:49.649Z,96573.94
